sensor_id;sensor_type;location;lat;lon;timestamp;P1;durP1;ratioP1;P2;durP2;ratioP2
47760;SDS011;33524;55.434;38.520;2023-04-06T00:02:27;7.90;;;5.07;;
47760;SDS011;33524;55.434;38.520;2023-04-06T00:04:56;6.75;;;5.05;;
47760;SDS011;33524;55.434;38.520;2023-04-06T00:07:24;12.32;;;5.03;;
47760;SDS011;33524;55.434;38.520;2023-04-06T00:09:52;7.20;;;4.25;;
47760;SDS011;33524;55.434;38.520;2023-04-06T00:12:20;7.37;;;5.25;;
47760;SDS011;33524;55.434;38.520;2023-04-06T00:14:48;5.97;;;3.97;;
47760;SDS011;33524;55.434;38.520;2023-04-06T00:17:20;7.15;;;3.92;;
47760;SDS011;33524;55.434;38.520;2023-04-06T00:19:48;5.82;;;4.47;;
47760;SDS011;33524;55.434;38.520;2023-04-06T00:22:16;7.87;;;4.70;;
47760;SDS011;33524;55.434;38.520;2023-04-06T00:24:45;7.30;;;4.72;;
47760;SDS011;33524;55.434;38.520;2023-04-06T00:27:12;8.13;;;3.67;;
47760;SDS011;33524;55.434;38.520;2023-04-06T00:29:40;7.43;;;4.03;;
47760;SDS011;33524;55.434;38.520;2023-04-06T00:32:09;7.60;;;5.10;;
47760;SDS011;33524;55.434;38.520;2023-04-06T00:34:37;6.55;;;4.05;;
47760;SDS011;33524;55.434;38.520;2023-04-06T00:37:05;7.93;;;4.05;;
47760;SDS011;33524;55.434;38.520;2023-04-06T00:39:33;9.25;;;4.40;;
47760;SDS011;33524;55.434;38.520;2023-04-06T00:42:01;7.43;;;4.95;;
47760;SDS011;33524;55.434;38.520;2023-04-06T00:44:42;8.43;;;5.30;;
47760;SDS011;33524;55.434;38.520;2023-04-06T00:47:12;7.50;;;4.70;;
47760;SDS011;33524;55.434;38.520;2023-04-06T00:49:40;7.70;;;4.50;;
47760;SDS011;33524;55.434;38.520;2023-04-06T00:52:08;7.82;;;4.72;;
47760;SDS011;33524;55.434;38.520;2023-04-06T00:54:37;7.25;;;4.35;;
47760;SDS011;33524;55.434;38.520;2023-04-06T00:57:05;9.70;;;4.90;;
47760;SDS011;33524;55.434;38.520;2023-04-06T00:59:33;9.80;;;5.05;;
47760;SDS011;33524;55.434;38.520;2023-04-06T01:02:06;7.28;;;4.43;;
47760;SDS011;33524;55.434;38.520;2023-04-06T01:04:35;8.85;;;4.90;;
47760;SDS011;33524;55.434;38.520;2023-04-06T01:07:05;9.55;;;5.10;;
47760;SDS011;33524;55.434;38.520;2023-04-06T01:09:35;7.20;;;4.78;;
47760;SDS011;33524;55.434;38.520;2023-04-06T01:12:04;7.43;;;4.72;;
47760;SDS011;33524;55.434;38.520;2023-04-06T01:14:33;6.95;;;4.12;;
47760;SDS011;33524;55.434;38.520;2023-04-06T01:17:01;7.15;;;4.37;;
47760;SDS011;33524;55.434;38.520;2023-04-06T01:19:30;7.43;;;5.12;;
47760;SDS011;33524;55.434;38.520;2023-04-06T01:21:59;7.53;;;5.28;;
47760;SDS011;33524;55.434;38.520;2023-04-06T01:24:28;12.07;;;6.10;;
47760;SDS011;33524;55.434;38.520;2023-04-06T01:26:57;7.45;;;4.85;;
47760;SDS011;33524;55.434;38.520;2023-04-06T01:29:26;7.47;;;4.45;;
47760;SDS011;33524;55.434;38.520;2023-04-06T01:31:55;6.97;;;4.95;;
47760;SDS011;33524;55.434;38.520;2023-04-06T01:34:24;8.90;;;4.35;;
47760;SDS011;33524;55.434;38.520;2023-04-06T01:36:52;7.28;;;4.97;;
47760;SDS011;33524;55.434;38.520;2023-04-06T01:39:21;6.85;;;4.00;;
47760;SDS011;33524;55.434;38.520;2023-04-06T01:41:50;6.82;;;5.35;;
47760;SDS011;33524;55.434;38.520;2023-04-06T01:44:19;9.45;;;5.37;;
47760;SDS011;33524;55.434;38.520;2023-04-06T01:46:48;6.35;;;4.53;;
47760;SDS011;33524;55.434;38.520;2023-04-06T01:49:18;6.15;;;4.28;;
47760;SDS011;33524;55.434;38.520;2023-04-06T01:51:46;6.18;;;4.43;;
47760;SDS011;33524;55.434;38.520;2023-04-06T01:54:15;5.90;;;3.95;;
47760;SDS011;33524;55.434;38.520;2023-04-06T01:56:44;8.88;;;4.87;;
47760;SDS011;33524;55.434;38.520;2023-04-06T01:59:13;6.53;;;4.82;;
47760;SDS011;33524;55.434;38.520;2023-04-06T02:01:41;7.45;;;4.10;;
47760;SDS011;33524;55.434;38.520;2023-04-06T02:04:10;7.20;;;4.35;;
47760;SDS011;33524;55.434;38.520;2023-04-06T02:06:38;6.37;;;4.20;;
47760;SDS011;33524;55.434;38.520;2023-04-06T02:09:07;8.40;;;4.85;;
47760;SDS011;33524;55.434;38.520;2023-04-06T02:11:36;9.25;;;4.95;;
47760;SDS011;33524;55.434;38.520;2023-04-06T02:14:04;9.55;;;4.53;;
47760;SDS011;33524;55.434;38.520;2023-04-06T02:16:34;8.55;;;5.25;;
47760;SDS011;33524;55.434;38.520;2023-04-06T02:19:02;7.78;;;5.40;;
47760;SDS011;33524;55.434;38.520;2023-04-06T02:21:30;8.98;;;4.70;;
47760;SDS011;33524;55.434;38.520;2023-04-06T02:23:58;7.15;;;5.05;;
47760;SDS011;33524;55.434;38.520;2023-04-06T02:26:27;9.02;;;5.28;;
47760;SDS011;33524;55.434;38.520;2023-04-06T02:28:55;11.07;;;5.53;;
47760;SDS011;33524;55.434;38.520;2023-04-06T02:31:23;8.23;;;5.57;;
47760;SDS011;33524;55.434;38.520;2023-04-06T02:33:51;6.72;;;4.87;;
47760;SDS011;33524;55.434;38.520;2023-04-06T02:36:19;8.38;;;5.00;;
47760;SDS011;33524;55.434;38.520;2023-04-06T02:38:48;7.80;;;4.95;;
47760;SDS011;33524;55.434;38.520;2023-04-06T02:41:16;7.05;;;4.45;;
47760;SDS011;33524;55.434;38.520;2023-04-06T02:43:44;8.07;;;5.32;;
47760;SDS011;33524;55.434;38.520;2023-04-06T02:46:13;6.37;;;4.50;;
47760;SDS011;33524;55.434;38.520;2023-04-06T02:48:41;6.87;;;5.32;;
47760;SDS011;33524;55.434;38.520;2023-04-06T02:51:09;7.07;;;4.85;;
47760;SDS011;33524;55.434;38.520;2023-04-06T02:53:37;8.07;;;4.70;;
47760;SDS011;33524;55.434;38.520;2023-04-06T02:56:05;8.35;;;4.80;;
47760;SDS011;33524;55.434;38.520;2023-04-06T02:58:34;9.15;;;5.82;;
47760;SDS011;33524;55.434;38.520;2023-04-06T03:01:03;10.35;;;5.60;;
47760;SDS011;33524;55.434;38.520;2023-04-06T03:03:31;7.03;;;4.65;;
47760;SDS011;33524;55.434;38.520;2023-04-06T03:05:59;9.85;;;5.78;;
47760;SDS011;33524;55.434;38.520;2023-04-06T03:08:28;8.68;;;6.22;;
47760;SDS011;33524;55.434;38.520;2023-04-06T03:10:57;8.55;;;4.95;;
47760;SDS011;33524;55.434;38.520;2023-04-06T03:13:29;8.20;;;5.10;;
47760;SDS011;33524;55.434;38.520;2023-04-06T03:15:57;8.35;;;5.87;;
47760;SDS011;33524;55.434;38.520;2023-04-06T03:18:26;6.35;;;3.95;;
47760;SDS011;33524;55.434;38.520;2023-04-06T03:20:54;8.70;;;5.57;;
47760;SDS011;33524;55.434;38.520;2023-04-06T03:23:24;6.30;;;4.22;;
47760;SDS011;33524;55.434;38.520;2023-04-06T03:25:52;8.63;;;5.22;;
47760;SDS011;33524;55.434;38.520;2023-04-06T03:28:20;8.10;;;5.12;;
47760;SDS011;33524;55.434;38.520;2023-04-06T03:30:48;9.57;;;6.07;;
47760;SDS011;33524;55.434;38.520;2023-04-06T03:33:18;7.75;;;5.32;;
47760;SDS011;33524;55.434;38.520;2023-04-06T03:35:48;8.13;;;4.57;;
47760;SDS011;33524;55.434;38.520;2023-04-06T03:38:17;9.52;;;4.95;;
47760;SDS011;33524;55.434;38.520;2023-04-06T03:40:44;7.28;;;4.53;;
47760;SDS011;33524;55.434;38.520;2023-04-06T03:43:12;11.82;;;4.37;;
47760;SDS011;33524;55.434;38.520;2023-04-06T03:45:41;7.53;;;4.95;;
47760;SDS011;33524;55.434;38.520;2023-04-06T03:48:09;8.60;;;4.87;;
47760;SDS011;33524;55.434;38.520;2023-04-06T03:50:37;7.80;;;4.78;;
47760;SDS011;33524;55.434;38.520;2023-04-06T03:53:06;8.27;;;4.43;;
47760;SDS011;33524;55.434;38.520;2023-04-06T03:55:33;7.40;;;4.82;;
47760;SDS011;33524;55.434;38.520;2023-04-06T03:58:01;10.10;;;4.75;;
47760;SDS011;33524;55.434;38.520;2023-04-06T04:00:30;8.38;;;5.25;;
47760;SDS011;33524;55.434;38.520;2023-04-06T04:03:00;9.18;;;4.10;;
47760;SDS011;33524;55.434;38.520;2023-04-06T04:05:29;6.97;;;4.15;;
47760;SDS011;33524;55.434;38.520;2023-04-06T04:07:57;10.68;;;5.60;;
47760;SDS011;33524;55.434;38.520;2023-04-06T04:10:26;6.35;;;3.90;;
47760;SDS011;33524;55.434;38.520;2023-04-06T04:12:53;8.65;;;5.15;;
47760;SDS011;33524;55.434;38.520;2023-04-06T04:15:22;8.45;;;4.62;;
47760;SDS011;33524;55.434;38.520;2023-04-06T04:17:50;6.30;;;4.22;;
47760;SDS011;33524;55.434;38.520;2023-04-06T04:20:18;6.57;;;3.58;;
47760;SDS011;33524;55.434;38.520;2023-04-06T04:22:46;6.90;;;3.20;;
47760;SDS011;33524;55.434;38.520;2023-04-06T04:25:15;6.00;;;3.78;;
47760;SDS011;33524;55.434;38.520;2023-04-06T04:27:43;6.70;;;3.25;;
47760;SDS011;33524;55.434;38.520;2023-04-06T04:30:12;5.93;;;3.28;;
47760;SDS011;33524;55.434;38.520;2023-04-06T04:32:41;7.12;;;3.62;;
47760;SDS011;33524;55.434;38.520;2023-04-06T04:35:09;6.07;;;3.70;;
47760;SDS011;33524;55.434;38.520;2023-04-06T04:37:38;4.87;;;3.37;;
47760;SDS011;33524;55.434;38.520;2023-04-06T04:40:08;5.43;;;3.30;;
47760;SDS011;33524;55.434;38.520;2023-04-06T04:42:38;4.72;;;2.55;;
47760;SDS011;33524;55.434;38.520;2023-04-06T04:45:08;4.47;;;2.90;;
47760;SDS011;33524;55.434;38.520;2023-04-06T04:47:37;6.40;;;3.08;;
47760;SDS011;33524;55.434;38.520;2023-04-06T04:50:05;3.85;;;2.30;;
47760;SDS011;33524;55.434;38.520;2023-04-06T04:52:37;4.80;;;2.67;;
47760;SDS011;33524;55.434;38.520;2023-04-06T04:55:07;4.45;;;2.12;;
47760;SDS011;33524;55.434;38.520;2023-04-06T04:57:35;6.30;;;2.35;;
47760;SDS011;33524;55.434;38.520;2023-04-06T05:00:22;3.53;;;2.45;;
47760;SDS011;33524;55.434;38.520;2023-04-06T05:02:53;4.43;;;2.55;;
47760;SDS011;33524;55.434;38.520;2023-04-06T05:05:22;4.55;;;3.17;;
47760;SDS011;33524;55.434;38.520;2023-04-06T05:07:51;4.10;;;2.58;;
47760;SDS011;33524;55.434;38.520;2023-04-06T05:10:23;5.10;;;2.30;;
47760;SDS011;33524;55.434;38.520;2023-04-06T05:12:53;3.87;;;2.20;;
47760;SDS011;33524;55.434;38.520;2023-04-06T05:15:21;3.75;;;2.30;;
47760;SDS011;33524;55.434;38.520;2023-04-06T05:17:49;5.45;;;2.12;;
47760;SDS011;33524;55.434;38.520;2023-04-06T05:20:20;6.47;;;3.83;;
47760;SDS011;33524;55.434;38.520;2023-04-06T05:22:48;7.37;;;3.40;;
47760;SDS011;33524;55.434;38.520;2023-04-06T05:25:16;5.93;;;2.58;;
47760;SDS011;33524;55.434;38.520;2023-04-06T05:27:45;7.05;;;2.30;;
47760;SDS011;33524;55.434;38.520;2023-04-06T05:30:14;4.78;;;2.42;;
47760;SDS011;33524;55.434;38.520;2023-04-06T05:32:43;5.18;;;3.10;;
47760;SDS011;33524;55.434;38.520;2023-04-06T05:35:13;3.40;;;2.75;;
47760;SDS011;33524;55.434;38.520;2023-04-06T05:37:43;4.03;;;2.65;;
47760;SDS011;33524;55.434;38.520;2023-04-06T05:40:11;4.90;;;2.62;;
47760;SDS011;33524;55.434;38.520;2023-04-06T05:42:40;4.03;;;2.30;;
47760;SDS011;33524;55.434;38.520;2023-04-06T05:45:10;4.18;;;2.60;;
47760;SDS011;33524;55.434;38.520;2023-04-06T05:47:45;4.40;;;2.58;;
47760;SDS011;33524;55.434;38.520;2023-04-06T05:50:16;4.82;;;2.62;;
47760;SDS011;33524;55.434;38.520;2023-04-06T05:52:45;3.40;;;2.22;;
47760;SDS011;33524;55.434;38.520;2023-04-06T05:55:14;6.30;;;3.35;;
47760;SDS011;33524;55.434;38.520;2023-04-06T05:57:43;5.25;;;3.15;;
47760;SDS011;33524;55.434;38.520;2023-04-06T06:00:14;3.85;;;2.15;;
47760;SDS011;33524;55.434;38.520;2023-04-06T06:02:44;3.95;;;1.90;;
47760;SDS011;33524;55.434;38.520;2023-04-06T06:05:14;2.30;;;1.70;;
47760;SDS011;33524;55.434;38.520;2023-04-06T06:07:47;4.25;;;2.22;;
47760;SDS011;33524;55.434;38.520;2023-04-06T06:10:15;5.43;;;2.78;;
47760;SDS011;33524;55.434;38.520;2023-04-06T06:12:44;4.22;;;2.17;;
47760;SDS011;33524;55.434;38.520;2023-04-06T06:15:12;4.82;;;3.10;;
47760;SDS011;33524;55.434;38.520;2023-04-06T06:17:41;3.10;;;1.92;;
47760;SDS011;33524;55.434;38.520;2023-04-06T06:20:10;3.35;;;1.98;;
47760;SDS011;33524;55.434;38.520;2023-04-06T06:22:38;3.55;;;1.90;;
47760;SDS011;33524;55.434;38.520;2023-04-06T06:25:08;2.62;;;1.70;;
47760;SDS011;33524;55.434;38.520;2023-04-06T06:27:38;2.97;;;1.52;;
47760;SDS011;33524;55.434;38.520;2023-04-06T06:30:06;2.90;;;2.00;;
47760;SDS011;33524;55.434;38.520;2023-04-06T06:32:35;4.80;;;1.85;;
47760;SDS011;33524;55.434;38.520;2023-04-06T06:35:03;3.42;;;2.00;;
47760;SDS011;33524;55.434;38.520;2023-04-06T06:37:32;4.03;;;2.20;;
47760;SDS011;33524;55.434;38.520;2023-04-06T06:40:00;3.95;;;2.05;;
47760;SDS011;33524;55.434;38.520;2023-04-06T06:42:29;4.12;;;2.10;;
47760;SDS011;33524;55.434;38.520;2023-04-06T06:45:00;3.20;;;1.90;;
47760;SDS011;33524;55.434;38.520;2023-04-06T06:47:29;3.28;;;2.37;;
47760;SDS011;33524;55.434;38.520;2023-04-06T06:49:57;3.72;;;2.28;;
47760;SDS011;33524;55.434;38.520;2023-04-06T06:52:25;6.35;;;2.83;;
47760;SDS011;33524;55.434;38.520;2023-04-06T06:54:53;3.03;;;1.70;;
47760;SDS011;33524;55.434;38.520;2023-04-06T06:57:25;2.53;;;1.60;;
47760;SDS011;33524;55.434;38.520;2023-04-06T06:59:54;4.97;;;2.05;;
47760;SDS011;33524;55.434;38.520;2023-04-06T07:02:22;5.45;;;2.42;;
47760;SDS011;33524;55.434;38.520;2023-04-06T07:04:51;3.10;;;1.80;;
47760;SDS011;33524;55.434;38.520;2023-04-06T07:07:19;3.65;;;1.83;;
47760;SDS011;33524;55.434;38.520;2023-04-06T07:09:47;5.28;;;2.42;;
47760;SDS011;33524;55.434;38.520;2023-04-06T07:12:15;4.57;;;2.08;;
47760;SDS011;33524;55.434;38.520;2023-04-06T07:14:43;3.80;;;2.33;;
47760;SDS011;33524;55.434;38.520;2023-04-06T07:17:11;7.95;;;2.85;;
47760;SDS011;33524;55.434;38.520;2023-04-06T07:19:40;3.83;;;2.00;;
47760;SDS011;33524;55.434;38.520;2023-04-06T07:22:09;2.42;;;1.60;;
47760;SDS011;33524;55.434;38.520;2023-04-06T07:24:37;5.53;;;2.28;;
47760;SDS011;33524;55.434;38.520;2023-04-06T07:27:09;3.97;;;2.10;;
47760;SDS011;33524;55.434;38.520;2023-04-06T07:29:37;3.55;;;1.80;;
47760;SDS011;33524;55.434;38.520;2023-04-06T07:32:05;4.87;;;1.95;;
47760;SDS011;33524;55.434;38.520;2023-04-06T07:34:34;4.18;;;1.85;;
47760;SDS011;33524;55.434;38.520;2023-04-06T07:37:02;3.40;;;1.90;;
47760;SDS011;33524;55.434;38.520;2023-04-06T07:39:31;3.65;;;2.08;;
47760;SDS011;33524;55.434;38.520;2023-04-06T07:41:59;5.55;;;1.87;;
47760;SDS011;33524;55.434;38.520;2023-04-06T07:44:28;6.55;;;2.35;;
47760;SDS011;33524;55.434;38.520;2023-04-06T07:46:56;3.90;;;1.80;;
47760;SDS011;33524;55.434;38.520;2023-04-06T07:49:25;3.75;;;2.22;;
47760;SDS011;33524;55.434;38.520;2023-04-06T07:51:54;4.18;;;1.87;;
47760;SDS011;33524;55.434;38.520;2023-04-06T07:54:22;3.37;;;1.85;;
47760;SDS011;33524;55.434;38.520;2023-04-06T07:56:50;2.92;;;1.73;;
47760;SDS011;33524;55.434;38.520;2023-04-06T07:59:19;2.40;;;1.70;;
47760;SDS011;33524;55.434;38.520;2023-04-06T08:01:47;3.87;;;1.90;;
47760;SDS011;33524;55.434;38.520;2023-04-06T08:04:15;3.05;;;2.28;;
47760;SDS011;33524;55.434;38.520;2023-04-06T08:06:43;4.05;;;1.77;;
47760;SDS011;33524;55.434;38.520;2023-04-06T08:09:13;3.42;;;2.12;;
47760;SDS011;33524;55.434;38.520;2023-04-06T08:11:45;3.37;;;1.75;;
47760;SDS011;33524;55.434;38.520;2023-04-06T08:14:38;2.45;;;1.33;;
47760;SDS011;33524;55.434;38.520;2023-04-06T08:17:19;5.43;;;2.00;;
47760;SDS011;33524;55.434;38.520;2023-04-06T08:19:59;7.53;;;3.00;;
47760;SDS011;33524;55.434;38.520;2023-04-06T08:22:29;3.12;;;1.62;;
47760;SDS011;33524;55.434;38.520;2023-04-06T08:24:57;4.75;;;2.35;;
47760;SDS011;33524;55.434;38.520;2023-04-06T08:27:38;4.28;;;2.10;;
47760;SDS011;33524;55.434;38.520;2023-04-06T08:30:06;2.97;;;1.70;;
47760;SDS011;33524;55.434;38.520;2023-04-06T08:32:47;3.67;;;1.70;;
47760;SDS011;33524;55.434;38.520;2023-04-06T08:35:15;2.87;;;2.00;;
47760;SDS011;33524;55.434;38.520;2023-04-06T08:37:56;4.68;;;2.67;;
47760;SDS011;33524;55.434;38.520;2023-04-06T08:40:49;3.70;;;2.05;;
47760;SDS011;33524;55.434;38.520;2023-04-06T08:43:30;4.47;;;1.70;;
47760;SDS011;33524;55.434;38.520;2023-04-06T08:46:14;4.22;;;2.92;;
47760;SDS011;33524;55.434;38.520;2023-04-06T08:48:42;6.85;;;2.50;;
47760;SDS011;33524;55.434;38.520;2023-04-06T08:51:28;5.47;;;1.95;;
47760;SDS011;33524;55.434;38.520;2023-04-06T08:53:58;5.87;;;3.20;;
47760;SDS011;33524;55.434;38.520;2023-04-06T08:56:39;5.28;;;2.42;;
47760;SDS011;33524;55.434;38.520;2023-04-06T08:59:38;5.35;;;1.67;;
47760;SDS011;33524;55.434;38.520;2023-04-06T09:02:07;2.92;;;1.73;;
47760;SDS011;33524;55.434;38.520;2023-04-06T09:04:47;4.30;;;2.22;;
47760;SDS011;33524;55.434;38.520;2023-04-06T09:07:40;6.07;;;2.42;;
47760;SDS011;33524;55.434;38.520;2023-04-06T09:10:08;4.95;;;1.83;;
47760;SDS011;33524;55.434;38.520;2023-04-06T09:12:49;5.60;;;2.00;;
47760;SDS011;33524;55.434;38.520;2023-04-06T09:15:30;2.85;;;1.77;;
47760;SDS011;33524;55.434;38.520;2023-04-06T09:17:58;3.12;;;1.73;;
47760;SDS011;33524;55.434;38.520;2023-04-06T09:20:26;5.03;;;2.03;;
47760;SDS011;33524;55.434;38.520;2023-04-06T09:23:17;3.67;;;2.22;;
47760;SDS011;33524;55.434;38.520;2023-04-06T09:25:45;5.32;;;2.30;;
47760;SDS011;33524;55.434;38.520;2023-04-06T09:28:57;3.53;;;2.05;;
47760;SDS011;33524;55.434;38.520;2023-04-06T09:31:27;5.40;;;2.92;;
47760;SDS011;33524;55.434;38.520;2023-04-06T09:33:58;4.87;;;2.20;;
47760;SDS011;33524;55.434;38.520;2023-04-06T09:36:47;3.22;;;2.08;;
47760;SDS011;33524;55.434;38.520;2023-04-06T09:39:19;2.85;;;1.67;;
47760;SDS011;33524;55.434;38.520;2023-04-06T09:41:53;4.55;;;1.80;;
47760;SDS011;33524;55.434;38.520;2023-04-06T09:44:33;7.75;;;2.33;;
47760;SDS011;33524;55.434;38.520;2023-04-06T09:47:02;3.97;;;1.80;;
47760;SDS011;33524;55.434;38.520;2023-04-06T09:49:35;6.00;;;2.33;;
47760;SDS011;33524;55.434;38.520;2023-04-06T09:52:03;6.35;;;3.15;;
47760;SDS011;33524;55.434;38.520;2023-04-06T09:54:46;5.15;;;2.70;;
47760;SDS011;33524;55.434;38.520;2023-04-06T10:02:41;4.93;;;2.40;;
47760;SDS011;33524;55.434;38.520;2023-04-06T10:05:40;3.47;;;1.65;;
47760;SDS011;33524;55.434;38.520;2023-04-06T10:08:27;2.95;;;1.52;;
47760;SDS011;33524;55.434;38.520;2023-04-06T10:10:59;5.03;;;2.28;;
47760;SDS011;33524;55.434;38.520;2023-04-06T10:13:28;4.60;;;2.15;;
47760;SDS011;33524;55.434;38.520;2023-04-06T10:16:08;6.43;;;2.62;;
47760;SDS011;33524;55.434;38.520;2023-04-06T10:18:38;2.53;;;1.98;;
47760;SDS011;33524;55.434;38.520;2023-04-06T10:21:09;6.20;;;2.42;;
47760;SDS011;33524;55.434;38.520;2023-04-06T10:23:47;5.97;;;2.37;;
47760;SDS011;33524;55.434;38.520;2023-04-06T10:26:30;3.08;;;1.85;;
47760;SDS011;33524;55.434;38.520;2023-04-06T10:29:02;3.97;;;2.75;;
47760;SDS011;33524;55.434;38.520;2023-04-06T10:31:32;7.18;;;2.67;;
47760;SDS011;33524;55.434;38.520;2023-04-06T10:34:00;5.30;;;3.33;;
47760;SDS011;33524;55.434;38.520;2023-04-06T10:36:41;8.57;;;6.57;;
47760;SDS011;33524;55.434;38.520;2023-04-06T10:39:25;5.07;;;3.05;;
47760;SDS011;33524;55.434;38.520;2023-04-06T10:42:08;6.03;;;2.40;;
47760;SDS011;33524;55.434;38.520;2023-04-06T10:44:42;3.20;;;1.60;;
47760;SDS011;33524;55.434;38.520;2023-04-06T10:47:17;4.30;;;1.75;;
47760;SDS011;33524;55.434;38.520;2023-04-06T10:49:46;4.10;;;1.90;;
47760;SDS011;33524;55.434;38.520;2023-04-06T10:52:14;4.60;;;2.03;;
47760;SDS011;33524;55.434;38.520;2023-04-06T10:54:42;5.30;;;2.30;;
47760;SDS011;33524;55.434;38.520;2023-04-06T10:57:14;4.07;;;2.57;;
47760;SDS011;33524;55.434;38.520;2023-04-06T10:59:44;9.07;;;2.80;;
47760;SDS011;33524;55.434;38.520;2023-04-06T11:02:18;4.05;;;2.05;;
47760;SDS011;33524;55.434;38.520;2023-04-06T11:04:56;6.25;;;1.75;;
47760;SDS011;33524;55.434;38.520;2023-04-06T11:07:25;4.20;;;2.03;;
47760;SDS011;33524;55.434;38.520;2023-04-06T11:09:54;5.40;;;2.22;;
47760;SDS011;33524;55.434;38.520;2023-04-06T11:12:42;4.62;;;2.20;;
47760;SDS011;33524;55.434;38.520;2023-04-06T11:15:11;4.15;;;2.10;;
47760;SDS011;33524;55.434;38.520;2023-04-06T11:17:39;6.57;;;1.80;;
47760;SDS011;33524;55.434;38.520;2023-04-06T11:20:10;5.30;;;2.65;;
47760;SDS011;33524;55.434;38.520;2023-04-06T11:22:49;2.90;;;1.80;;
47760;SDS011;33524;55.434;38.520;2023-04-06T11:25:20;5.25;;;2.45;;
47760;SDS011;33524;55.434;38.520;2023-04-06T11:27:48;7.55;;;2.80;;
47760;SDS011;33524;55.434;38.520;2023-04-06T11:30:16;5.85;;;2.90;;
47760;SDS011;33524;55.434;38.520;2023-04-06T11:32:45;7.45;;;2.17;;
47760;SDS011;33524;55.434;38.520;2023-04-06T11:35:23;3.97;;;2.17;;
47760;SDS011;33524;55.434;38.520;2023-04-06T11:37:51;7.22;;;2.33;;
47760;SDS011;33524;55.434;38.520;2023-04-06T11:40:26;6.97;;;2.45;;
47760;SDS011;33524;55.434;38.520;2023-04-06T11:42:55;4.12;;;2.40;;
47760;SDS011;33524;55.434;38.520;2023-04-06T11:45:24;3.58;;;1.75;;
47760;SDS011;33524;55.434;38.520;2023-04-06T11:47:59;5.10;;;2.55;;
47760;SDS011;33524;55.434;38.520;2023-04-06T11:50:32;6.37;;;3.22;;
47760;SDS011;33524;55.434;38.520;2023-04-06T11:53:03;7.47;;;2.78;;
47760;SDS011;33524;55.434;38.520;2023-04-06T11:55:36;7.80;;;3.30;;
47760;SDS011;33524;55.434;38.520;2023-04-06T11:58:06;5.35;;;2.62;;
47760;SDS011;33524;55.434;38.520;2023-04-06T12:00:35;9.23;;;1.80;;
47760;SDS011;33524;55.434;38.520;2023-04-06T12:03:04;5.80;;;2.05;;
47760;SDS011;33524;55.434;38.520;2023-04-06T12:05:33;5.82;;;2.17;;
47760;SDS011;33524;55.434;38.520;2023-04-06T12:08:01;5.43;;;1.73;;
47760;SDS011;33524;55.434;38.520;2023-04-06T12:10:30;6.05;;;2.30;;
47760;SDS011;33524;55.434;38.520;2023-04-06T12:12:58;9.15;;;2.25;;
47760;SDS011;33524;55.434;38.520;2023-04-06T12:15:26;7.78;;;2.62;;
47760;SDS011;33524;55.434;38.520;2023-04-06T12:17:55;6.15;;;2.60;;
47760;SDS011;33524;55.434;38.520;2023-04-06T12:20:22;3.75;;;2.30;;
47760;SDS011;33524;55.434;38.520;2023-04-06T12:22:53;3.85;;;1.75;;
47760;SDS011;33524;55.434;38.520;2023-04-06T12:25:42;6.05;;;2.30;;
47760;SDS011;33524;55.434;38.520;2023-04-06T12:28:10;4.18;;;2.10;;
47760;SDS011;33524;55.434;38.520;2023-04-06T12:30:38;3.42;;;1.58;;
47760;SDS011;33524;55.434;38.520;2023-04-06T12:33:20;4.07;;;1.73;;
47760;SDS011;33524;55.434;38.520;2023-04-06T12:35:49;5.87;;;3.00;;
47760;SDS011;33524;55.434;38.520;2023-04-06T12:38:28;10.95;;;1.80;;
47760;SDS011;33524;55.434;38.520;2023-04-06T12:40:57;4.95;;;1.77;;
47760;SDS011;33524;55.434;38.520;2023-04-06T12:43:25;8.80;;;1.70;;
47760;SDS011;33524;55.434;38.520;2023-04-06T12:45:53;4.10;;;1.30;;
47760;SDS011;33524;55.434;38.520;2023-04-06T12:48:21;3.53;;;2.25;;
47760;SDS011;33524;55.434;38.520;2023-04-06T12:51:02;4.00;;;1.58;;
47760;SDS011;33524;55.434;38.520;2023-04-06T12:53:33;2.62;;;1.65;;
47760;SDS011;33524;55.434;38.520;2023-04-06T12:56:02;2.97;;;1.42;;
47760;SDS011;33524;55.434;38.520;2023-04-06T12:58:50;6.28;;;2.80;;
47760;SDS011;33524;55.434;38.520;2023-04-06T13:01:30;5.75;;;2.28;;
47760;SDS011;33524;55.434;38.520;2023-04-06T13:03:58;4.05;;;2.60;;
47760;SDS011;33524;55.434;38.520;2023-04-06T13:06:26;3.55;;;2.15;;
47760;SDS011;33524;55.434;38.520;2023-04-06T13:09:07;2.30;;;1.60;;
47760;SDS011;33524;55.434;38.520;2023-04-06T13:11:34;3.80;;;2.05;;
47760;SDS011;33524;55.434;38.520;2023-04-06T13:14:02;3.08;;;2.03;;
47760;SDS011;33524;55.434;38.520;2023-04-06T13:16:31;5.43;;;2.03;;
47760;SDS011;33524;55.434;38.520;2023-04-06T13:18:59;3.35;;;2.37;;
47760;SDS011;33524;55.434;38.520;2023-04-06T13:39:00;4.75;;;2.15;;
47760;SDS011;33524;55.434;38.520;2023-04-06T13:41:28;5.78;;;2.28;;
47760;SDS011;33524;55.434;38.520;2023-04-06T13:43:56;4.68;;;1.75;;
47760;SDS011;33524;55.434;38.520;2023-04-06T13:46:25;5.43;;;2.25;;
47760;SDS011;33524;55.434;38.520;2023-04-06T13:48:55;4.20;;;1.50;;
47760;SDS011;33524;55.434;38.520;2023-04-06T13:51:24;3.97;;;2.08;;
47760;SDS011;33524;55.434;38.520;2023-04-06T13:54:06;6.87;;;2.12;;
47760;SDS011;33524;55.434;38.520;2023-04-06T13:56:58;3.42;;;1.52;;
47760;SDS011;33524;55.434;38.520;2023-04-06T13:59:34;5.40;;;2.50;;
47760;SDS011;33524;55.434;38.520;2023-04-06T14:02:03;3.85;;;2.25;;
47760;SDS011;33524;55.434;38.520;2023-04-06T14:04:33;3.25;;;2.28;;
47760;SDS011;33524;55.434;38.520;2023-04-06T14:07:02;5.15;;;2.45;;
47760;SDS011;33524;55.434;38.520;2023-04-06T14:09:30;3.05;;;1.98;;
47760;SDS011;33524;55.434;38.520;2023-04-06T14:11:58;3.60;;;1.70;;
47760;SDS011;33524;55.434;38.520;2023-04-06T14:14:27;2.92;;;1.73;;
47760;SDS011;33524;55.434;38.520;2023-04-06T14:16:55;2.75;;;1.73;;
47760;SDS011;33524;55.434;38.520;2023-04-06T14:19:35;4.18;;;1.60;;
47760;SDS011;33524;55.434;38.520;2023-04-06T14:22:03;2.47;;;1.33;;
47760;SDS011;33524;55.434;38.520;2023-04-06T14:24:32;3.00;;;1.33;;
47760;SDS011;33524;55.434;38.520;2023-04-06T14:27:12;3.03;;;1.60;;
47760;SDS011;33524;55.434;38.520;2023-04-06T14:29:41;3.25;;;1.33;;
47760;SDS011;33524;55.434;38.520;2023-04-06T14:32:09;1.98;;;1.20;;
47760;SDS011;33524;55.434;38.520;2023-04-06T14:35:01;3.78;;;1.23;;
47760;SDS011;33524;55.434;38.520;2023-04-06T14:37:30;4.28;;;1.75;;
47760;SDS011;33524;55.434;38.520;2023-04-06T14:39:58;4.97;;;1.77;;
47760;SDS011;33524;55.434;38.520;2023-04-06T14:42:27;3.33;;;1.90;;
47760;SDS011;33524;55.434;38.520;2023-04-06T14:44:55;2.05;;;1.30;;
47760;SDS011;33524;55.434;38.520;2023-04-06T14:47:23;3.40;;;1.65;;
47760;SDS011;33524;55.434;38.520;2023-04-06T14:49:51;2.65;;;1.45;;
47760;SDS011;33524;55.434;38.520;2023-04-06T14:52:20;2.40;;;1.30;;
47760;SDS011;33524;55.434;38.520;2023-04-06T14:54:48;1.58;;;1.15;;
47760;SDS011;33524;55.434;38.520;2023-04-06T14:57:16;1.98;;;1.30;;
47760;SDS011;33524;55.434;38.520;2023-04-06T14:59:44;3.15;;;1.83;;
47760;SDS011;33524;55.434;38.520;2023-04-06T15:02:12;2.17;;;1.40;;
47760;SDS011;33524;55.434;38.520;2023-04-06T15:04:40;2.47;;;1.50;;
47760;SDS011;33524;55.434;38.520;2023-04-06T15:07:08;1.95;;;1.30;;
47760;SDS011;33524;55.434;38.520;2023-04-06T15:09:36;4.55;;;3.42;;
47760;SDS011;33524;55.434;38.520;2023-04-06T15:12:04;2.58;;;1.70;;
47760;SDS011;33524;55.434;38.520;2023-04-06T15:14:32;4.03;;;1.62;;
47760;SDS011;33524;55.434;38.520;2023-04-06T15:17:00;1.83;;;1.20;;
47760;SDS011;33524;55.434;38.520;2023-04-06T15:19:29;2.33;;;1.37;;